sensor_id;sensor_type;location;lat;lon;timestamp;P1;durP1;ratioP1;P2;durP2;ratioP2
18455;SDS011;9357;49.900;8.208;2023-08-07T00:01:02;1.87;;;0.97;;
18455;SDS011;9357;49.900;8.208;2023-08-07T00:02:34;1.97;;;0.93;;
18455;SDS011;9357;49.900;8.208;2023-08-07T00:04:07;2.93;;;1.00;;
18455;SDS011;9357;49.900;8.208;2023-08-07T00:05:39;2.13;;;1.00;;
18455;SDS011;9357;49.900;8.208;2023-08-07T00:07:12;1.43;;;1.10;;
18455;SDS011;9357;49.900;8.208;2023-08-07T00:08:45;0.93;;;0.93;;
18455;SDS011;9357;49.900;8.208;2023-08-07T00:10:18;2.67;;;0.90;;
18455;SDS011;9357;49.900;8.208;2023-08-07T00:11:50;1.73;;;1.37;;
18455;SDS011;9357;49.900;8.208;2023-08-07T00:13:23;2.77;;;1.10;;
18455;SDS011;9357;49.900;8.208;2023-08-07T00:14:55;3.20;;;1.00;;
18455;SDS011;9357;49.900;8.208;2023-08-07T00:16:28;4.07;;;1.37;;
18455;SDS011;9357;49.900;8.208;2023-08-07T00:17:59;3.17;;;1.50;;
18455;SDS011;9357;49.900;8.208;2023-08-07T00:19:32;2.93;;;1.00;;
18455;SDS011;9357;49.900;8.208;2023-08-07T00:21:05;1.67;;;1.10;;
18455;SDS011;9357;49.900;8.208;2023-08-07T00:22:38;2.30;;;1.20;;
18455;SDS011;9357;49.900;8.208;2023-08-07T00:24:11;2.97;;;1.13;;
18455;SDS011;9357;49.900;8.208;2023-08-07T00:25:44;2.50;;;1.17;;
18455;SDS011;9357;49.900;8.208;2023-08-07T00:27:15;4.07;;;1.37;;
18455;SDS011;9357;49.900;8.208;2023-08-07T00:28:48;2.87;;;1.30;;
18455;SDS011;9357;49.900;8.208;2023-08-07T00:30:21;4.50;;;1.63;;
18455;SDS011;9357;49.900;8.208;2023-08-07T00:31:53;4.53;;;1.50;;
18455;SDS011;9357;49.900;8.208;2023-08-07T00:33:25;2.47;;;1.43;;
18455;SDS011;9357;49.900;8.208;2023-08-07T00:34:57;3.30;;;1.27;;
18455;SDS011;9357;49.900;8.208;2023-08-07T00:36:30;1.57;;;1.00;;
18455;SDS011;9357;49.900;8.208;2023-08-07T00:38:05;2.00;;;1.30;;
18455;SDS011;9357;49.900;8.208;2023-08-07T00:39:39;2.00;;;1.00;;
18455;SDS011;9357;49.900;8.208;2023-08-07T00:41:11;2.47;;;1.53;;
18455;SDS011;9357;49.900;8.208;2023-08-07T00:42:44;2.60;;;1.00;;
18455;SDS011;9357;49.900;8.208;2023-08-07T00:44:16;2.93;;;1.47;;
18455;SDS011;9357;49.900;8.208;2023-08-07T00:45:49;5.07;;;1.50;;
18455;SDS011;9357;49.900;8.208;2023-08-07T00:47:21;4.03;;;1.40;;
18455;SDS011;9357;49.900;8.208;2023-08-07T00:48:53;3.43;;;1.30;;
18455;SDS011;9357;49.900;8.208;2023-08-07T00:50:25;4.83;;;1.70;;
18455;SDS011;9357;49.900;8.208;2023-08-07T00:52:17;3.90;;;1.60;;
18455;SDS011;9357;49.900;8.208;2023-08-07T00:53:51;3.13;;;1.53;;
18455;SDS011;9357;49.900;8.208;2023-08-07T00:55:24;3.73;;;1.43;;
18455;SDS011;9357;49.900;8.208;2023-08-07T00:56:57;3.90;;;1.43;;
18455;SDS011;9357;49.900;8.208;2023-08-07T00:58:35;3.07;;;1.13;;
18455;SDS011;9357;49.900;8.208;2023-08-07T01:00:09;3.67;;;1.80;;
18455;SDS011;9357;49.900;8.208;2023-08-07T01:01:42;3.70;;;1.30;;
18455;SDS011;9357;49.900;8.208;2023-08-07T01:03:31;2.93;;;1.30;;
18455;SDS011;9357;49.900;8.208;2023-08-07T01:05:03;1.67;;;1.50;;
18455;SDS011;9357;49.900;8.208;2023-08-07T01:06:36;3.50;;;1.60;;
18455;SDS011;9357;49.900;8.208;2023-08-07T01:08:09;6.07;;;1.60;;
18455;SDS011;9357;49.900;8.208;2023-08-07T01:09:42;2.60;;;1.50;;
18455;SDS011;9357;49.900;8.208;2023-08-07T01:11:18;4.90;;;1.70;;
18455;SDS011;9357;49.900;8.208;2023-08-07T01:12:56;4.60;;;1.87;;
18455;SDS011;9357;49.900;8.208;2023-08-07T01:14:36;3.17;;;1.50;;
18455;SDS011;9357;49.900;8.208;2023-08-07T01:16:14;4.67;;;1.90;;
18455;SDS011;9357;49.900;8.208;2023-08-07T01:17:49;3.73;;;1.80;;
18455;SDS011;9357;49.900;8.208;2023-08-07T01:19:25;5.03;;;1.43;;
18455;SDS011;9357;49.900;8.208;2023-08-07T01:20:59;5.27;;;1.70;;
18455;SDS011;9357;49.900;8.208;2023-08-07T01:22:33;4.53;;;1.60;;
18455;SDS011;9357;49.900;8.208;2023-08-07T01:24:05;3.23;;;1.70;;
18455;SDS011;9357;49.900;8.208;2023-08-07T01:25:38;7.37;;;2.20;;
18455;SDS011;9357;49.900;8.208;2023-08-07T01:27:12;6.50;;;2.03;;
18455;SDS011;9357;49.900;8.208;2023-08-07T01:28:57;3.97;;;2.20;;
18455;SDS011;9357;49.900;8.208;2023-08-07T01:30:36;3.97;;;1.60;;
18455;SDS011;9357;49.900;8.208;2023-08-07T01:32:12;4.53;;;1.90;;
18455;SDS011;9357;49.900;8.208;2023-08-07T01:33:51;3.73;;;1.60;;
18455;SDS011;9357;49.900;8.208;2023-08-07T01:35:29;3.43;;;1.70;;
18455;SDS011;9357;49.900;8.208;2023-08-07T01:37:05;4.73;;;1.80;;
18455;SDS011;9357;49.900;8.208;2023-08-07T01:38:40;4.57;;;1.90;;
18455;SDS011;9357;49.900;8.208;2023-08-07T01:40:13;3.03;;;1.53;;
18455;SDS011;9357;49.900;8.208;2023-08-07T01:41:46;5.60;;;2.20;;
18455;SDS011;9357;49.900;8.208;2023-08-07T01:43:20;6.00;;;1.90;;
18455;SDS011;9357;49.900;8.208;2023-08-07T01:44:53;6.33;;;2.20;;
18455;SDS011;9357;49.900;8.208;2023-08-07T01:46:25;6.10;;;2.10;;
18455;SDS011;9357;49.900;8.208;2023-08-07T01:47:58;3.43;;;1.70;;
18455;SDS011;9357;49.900;8.208;2023-08-07T01:49:31;4.60;;;2.07;;
18455;SDS011;9357;49.900;8.208;2023-08-07T01:51:04;4.07;;;1.73;;
18455;SDS011;9357;49.900;8.208;2023-08-07T01:52:35;3.17;;;1.70;;
18455;SDS011;9357;49.900;8.208;2023-08-07T01:54:09;6.00;;;2.00;;
18455;SDS011;9357;49.900;8.208;2023-08-07T01:55:42;6.43;;;2.10;;
18455;SDS011;9357;49.900;8.208;2023-08-07T01:57:14;4.07;;;2.20;;
18455;SDS011;9357;49.900;8.208;2023-08-07T01:58:47;4.63;;;2.00;;
18455;SDS011;9357;49.900;8.208;2023-08-07T02:00:19;4.53;;;1.93;;
18455;SDS011;9357;49.900;8.208;2023-08-07T02:01:51;5.17;;;2.07;;
18455;SDS011;9357;49.900;8.208;2023-08-07T02:03:24;5.53;;;2.27;;
18455;SDS011;9357;49.900;8.208;2023-08-07T02:04:57;5.53;;;2.00;;
18455;SDS011;9357;49.900;8.208;2023-08-07T02:06:29;6.67;;;2.00;;
18455;SDS011;9357;49.900;8.208;2023-08-07T02:08:01;4.63;;;2.13;;
18455;SDS011;9357;49.900;8.208;2023-08-07T02:09:35;3.57;;;1.83;;
18455;SDS011;9357;49.900;8.208;2023-08-07T02:11:07;4.50;;;2.03;;
18455;SDS011;9357;49.900;8.208;2023-08-07T02:12:39;8.00;;;2.00;;
18455;SDS011;9357;49.900;8.208;2023-08-07T02:14:12;9.17;;;3.60;;
18455;SDS011;9357;49.900;8.208;2023-08-07T02:15:44;5.30;;;2.20;;
18455;SDS011;9357;49.900;8.208;2023-08-07T02:17:16;5.60;;;2.10;;
18455;SDS011;9357;49.900;8.208;2023-08-07T02:18:48;6.57;;;2.30;;
18455;SDS011;9357;49.900;8.208;2023-08-07T02:20:21;6.27;;;2.23;;
18455;SDS011;9357;49.900;8.208;2023-08-07T02:21:53;4.67;;;2.17;;
18455;SDS011;9357;49.900;8.208;2023-08-07T02:23:25;7.37;;;2.20;;
18455;SDS011;9357;49.900;8.208;2023-08-07T02:25:00;6.20;;;2.07;;
18455;SDS011;9357;49.900;8.208;2023-08-07T02:26:33;6.53;;;2.27;;
18455;SDS011;9357;49.900;8.208;2023-08-07T02:28:06;5.00;;;2.20;;
18455;SDS011;9357;49.900;8.208;2023-08-07T02:29:38;5.93;;;2.30;;
18455;SDS011;9357;49.900;8.208;2023-08-07T02:31:10;7.57;;;2.27;;
18455;SDS011;9357;49.900;8.208;2023-08-07T02:32:43;4.70;;;2.30;;
18455;SDS011;9357;49.900;8.208;2023-08-07T02:34:15;5.43;;;2.07;;
18455;SDS011;9357;49.900;8.208;2023-08-07T02:35:48;5.17;;;2.10;;
18455;SDS011;9357;49.900;8.208;2023-08-07T02:37:22;4.70;;;2.00;;
18455;SDS011;9357;49.900;8.208;2023-08-07T02:38:54;5.07;;;2.20;;
18455;SDS011;9357;49.900;8.208;2023-08-07T02:40:28;6.23;;;2.20;;
18455;SDS011;9357;49.900;8.208;2023-08-07T02:42:01;4.10;;;2.00;;
18455;SDS011;9357;49.900;8.208;2023-08-07T02:43:34;5.53;;;2.20;;
18455;SDS011;9357;49.900;8.208;2023-08-07T02:45:06;5.23;;;1.90;;
18455;SDS011;9357;49.900;8.208;2023-08-07T02:46:39;6.23;;;1.93;;
18455;SDS011;9357;49.900;8.208;2023-08-07T02:48:11;4.10;;;2.30;;
18455;SDS011;9357;49.900;8.208;2023-08-07T02:49:44;5.40;;;2.13;;
18455;SDS011;9357;49.900;8.208;2023-08-07T02:51:16;4.90;;;2.17;;
18455;SDS011;9357;49.900;8.208;2023-08-07T02:52:48;3.83;;;2.03;;
18455;SDS011;9357;49.900;8.208;2023-08-07T02:54:20;6.17;;;2.20;;
18455;SDS011;9357;49.900;8.208;2023-08-07T02:55:54;4.67;;;1.93;;
18455;SDS011;9357;49.900;8.208;2023-08-07T02:57:26;5.40;;;2.37;;
18455;SDS011;9357;49.900;8.208;2023-08-07T02:58:59;5.67;;;2.40;;
18455;SDS011;9357;49.900;8.208;2023-08-07T03:00:34;5.77;;;2.10;;
18455;SDS011;9357;49.900;8.208;2023-08-07T03:02:07;4.27;;;2.10;;
18455;SDS011;9357;49.900;8.208;2023-08-07T03:03:39;6.17;;;1.90;;
18455;SDS011;9357;49.900;8.208;2023-08-07T03:05:11;5.67;;;2.27;;
18455;SDS011;9357;49.900;8.208;2023-08-07T03:06:44;4.67;;;2.00;;
18455;SDS011;9357;49.900;8.208;2023-08-07T03:08:16;5.90;;;2.07;;
18455;SDS011;9357;49.900;8.208;2023-08-07T03:09:49;5.57;;;2.20;;
18455;SDS011;9357;49.900;8.208;2023-08-07T03:11:22;4.23;;;2.07;;
18455;SDS011;9357;49.900;8.208;2023-08-07T03:12:55;6.17;;;2.17;;
18455;SDS011;9357;49.900;8.208;2023-08-07T03:14:27;3.40;;;1.70;;
18455;SDS011;9357;49.900;8.208;2023-08-07T03:15:59;6.07;;;1.97;;
18455;SDS011;9357;49.900;8.208;2023-08-07T03:17:32;4.90;;;1.83;;
18455;SDS011;9357;49.900;8.208;2023-08-07T03:19:04;4.67;;;2.30;;
18455;SDS011;9357;49.900;8.208;2023-08-07T03:20:37;5.30;;;2.27;;
18455;SDS011;9357;49.900;8.208;2023-08-07T03:22:09;5.83;;;1.97;;
18455;SDS011;9357;49.900;8.208;2023-08-07T03:23:41;6.80;;;2.20;;
18455;SDS011;9357;49.900;8.208;2023-08-07T03:25:13;7.03;;;2.00;;
18455;SDS011;9357;49.900;8.208;2023-08-07T03:26:47;3.13;;;2.00;;
18455;SDS011;9357;49.900;8.208;2023-08-07T03:28:20;5.20;;;2.00;;
18455;SDS011;9357;49.900;8.208;2023-08-07T03:29:52;4.77;;;2.00;;
18455;SDS011;9357;49.900;8.208;2023-08-07T03:31:24;3.33;;;2.00;;
18455;SDS011;9357;49.900;8.208;2023-08-07T03:32:56;4.67;;;2.07;;
18455;SDS011;9357;49.900;8.208;2023-08-07T03:34:29;5.10;;;2.00;;
18455;SDS011;9357;49.900;8.208;2023-08-07T03:36:01;5.67;;;2.20;;
18455;SDS011;9357;49.900;8.208;2023-08-07T03:37:34;6.33;;;1.93;;
18455;SDS011;9357;49.900;8.208;2023-08-07T03:39:07;5.07;;;2.00;;
18455;SDS011;9357;49.900;8.208;2023-08-07T03:40:38;4.60;;;1.97;;
18455;SDS011;9357;49.900;8.208;2023-08-07T03:42:13;3.47;;;2.03;;
18455;SDS011;9357;49.900;8.208;2023-08-07T03:43:46;5.70;;;1.97;;
18455;SDS011;9357;49.900;8.208;2023-08-07T03:45:19;3.93;;;1.97;;
18455;SDS011;9357;49.900;8.208;2023-08-07T03:46:51;6.67;;;2.00;;
18455;SDS011;9357;49.900;8.208;2023-08-07T03:48:24;6.67;;;1.97;;
18455;SDS011;9357;49.900;8.208;2023-08-07T03:49:56;5.00;;;2.00;;
18455;SDS011;9357;49.900;8.208;2023-08-07T03:51:28;5.27;;;2.10;;
18455;SDS011;9357;49.900;8.208;2023-08-07T03:53:03;7.63;;;2.13;;
18455;SDS011;9357;49.900;8.208;2023-08-07T03:54:35;5.17;;;1.90;;
18455;SDS011;9357;49.900;8.208;2023-08-07T03:56:08;4.60;;;2.10;;
18455;SDS011;9357;49.900;8.208;2023-08-07T03:57:41;4.17;;;2.10;;
18455;SDS011;9357;49.900;8.208;2023-08-07T03:59:13;3.93;;;1.80;;
18455;SDS011;9357;49.900;8.208;2023-08-07T04:00:45;4.30;;;1.87;;
18455;SDS011;9357;49.900;8.208;2023-08-07T04:02:18;5.57;;;2.50;;
18455;SDS011;9357;49.900;8.208;2023-08-07T04:03:50;2.67;;;1.80;;
18455;SDS011;9357;49.900;8.208;2023-08-07T04:05:23;3.90;;;2.07;;
18455;SDS011;9357;49.900;8.208;2023-08-07T04:06:55;4.83;;;2.00;;
18455;SDS011;9357;49.900;8.208;2023-08-07T04:08:28;6.67;;;1.97;;
18455;SDS011;9357;49.900;8.208;2023-08-07T04:10:00;4.30;;;1.87;;
18455;SDS011;9357;49.900;8.208;2023-08-07T04:11:32;4.33;;;2.17;;
18455;SDS011;9357;49.900;8.208;2023-08-07T04:13:06;4.23;;;1.90;;
18455;SDS011;9357;49.900;8.208;2023-08-07T04:14:38;3.93;;;1.87;;
18455;SDS011;9357;49.900;8.208;2023-08-07T04:16:10;6.30;;;2.00;;
18455;SDS011;9357;49.900;8.208;2023-08-07T04:17:43;4.83;;;2.23;;
18455;SDS011;9357;49.900;8.208;2023-08-07T04:19:15;4.00;;;2.10;;
18455;SDS011;9357;49.900;8.208;2023-08-07T04:20:48;5.53;;;2.10;;
18455;SDS011;9357;49.900;8.208;2023-08-07T04:22:21;6.87;;;1.93;;
18455;SDS011;9357;49.900;8.208;2023-08-07T04:23:54;4.17;;;2.10;;
18455;SDS011;9357;49.900;8.208;2023-08-07T04:25:26;4.27;;;2.00;;
18455;SDS011;9357;49.900;8.208;2023-08-07T04:27:00;3.40;;;1.90;;
18455;SDS011;9357;49.900;8.208;2023-08-07T04:28:33;5.27;;;1.90;;
18455;SDS011;9357;49.900;8.208;2023-08-07T04:30:06;5.20;;;2.00;;
18455;SDS011;9357;49.900;8.208;2023-08-07T04:31:39;4.90;;;2.03;;
18455;SDS011;9357;49.900;8.208;2023-08-07T04:33:11;5.10;;;1.87;;
18455;SDS011;9357;49.900;8.208;2023-08-07T04:34:44;4.33;;;2.00;;
18455;SDS011;9357;49.900;8.208;2023-08-07T04:36:16;3.60;;;1.93;;
18455;SDS011;9357;49.900;8.208;2023-08-07T04:37:48;4.53;;;2.10;;
18455;SDS011;9357;49.900;8.208;2023-08-07T04:39:21;4.73;;;2.17;;
18455;SDS011;9357;49.900;8.208;2023-08-07T04:40:52;4.93;;;1.83;;
18455;SDS011;9357;49.900;8.208;2023-08-07T04:42:26;5.07;;;2.20;;
18455;SDS011;9357;49.900;8.208;2023-08-07T04:43:59;4.00;;;1.87;;
18455;SDS011;9357;49.900;8.208;2023-08-07T04:45:31;4.63;;;2.20;;
18455;SDS011;9357;49.900;8.208;2023-08-07T04:47:05;4.57;;;2.00;;
18455;SDS011;9357;49.900;8.208;2023-08-07T04:48:38;4.03;;;2.03;;
18455;SDS011;9357;49.900;8.208;2023-08-07T04:50:11;4.13;;;1.97;;
18455;SDS011;9357;49.900;8.208;2023-08-07T04:51:43;3.93;;;1.70;;
18455;SDS011;9357;49.900;8.208;2023-08-07T04:53:15;5.23;;;1.90;;
18455;SDS011;9357;49.900;8.208;2023-08-07T04:54:47;5.00;;;2.23;;
18455;SDS011;9357;49.900;8.208;2023-08-07T04:56:20;4.10;;;2.00;;
18455;SDS011;9357;49.900;8.208;2023-08-07T04:57:52;4.07;;;2.00;;
18455;SDS011;9357;49.900;8.208;2023-08-07T04:59:26;4.23;;;1.97;;
18455;SDS011;9357;49.900;8.208;2023-08-07T05:01:01;4.43;;;2.10;;
18455;SDS011;9357;49.900;8.208;2023-08-07T05:02:33;6.13;;;2.20;;
18455;SDS011;9357;49.900;8.208;2023-08-07T05:04:06;4.53;;;2.03;;
18455;SDS011;9357;49.900;8.208;2023-08-07T05:05:39;4.83;;;2.40;;
18455;SDS011;9357;49.900;8.208;2023-08-07T05:07:11;3.57;;;2.10;;
18455;SDS011;9357;49.900;8.208;2023-08-07T05:08:44;5.17;;;2.10;;
18455;SDS011;9357;49.900;8.208;2023-08-07T05:10:15;3.03;;;2.00;;
18455;SDS011;9357;49.900;8.208;2023-08-07T05:11:48;3.57;;;1.90;;
18455;SDS011;9357;49.900;8.208;2023-08-07T05:13:20;4.70;;;2.10;;
18455;SDS011;9357;49.900;8.208;2023-08-07T05:14:54;4.27;;;2.03;;
18455;SDS011;9357;49.900;8.208;2023-08-07T05:16:26;4.63;;;2.13;;
18455;SDS011;9357;49.900;8.208;2023-08-07T05:17:59;3.47;;;1.90;;
18455;SDS011;9357;49.900;8.208;2023-08-07T05:19:31;4.53;;;2.30;;
18455;SDS011;9357;49.900;8.208;2023-08-07T05:21:03;4.17;;;2.20;;
18455;SDS011;9357;49.900;8.208;2023-08-07T05:22:38;6.00;;;2.17;;
18455;SDS011;9357;49.900;8.208;2023-08-07T05:24:10;3.53;;;2.10;;
18455;SDS011;9357;49.900;8.208;2023-08-07T05:25:44;3.37;;;2.20;;
18455;SDS011;9357;49.900;8.208;2023-08-07T05:27:19;4.17;;;1.90;;
18455;SDS011;9357;49.900;8.208;2023-08-07T05:28:52;5.60;;;2.43;;
18455;SDS011;9357;49.900;8.208;2023-08-07T05:30:28;4.27;;;2.10;;
18455;SDS011;9357;49.900;8.208;2023-08-07T05:32:00;5.27;;;1.93;;
18455;SDS011;9357;49.900;8.208;2023-08-07T05:33:34;4.97;;;2.50;;
18455;SDS011;9357;49.900;8.208;2023-08-07T05:35:07;3.83;;;2.33;;
18455;SDS011;9357;49.900;8.208;2023-08-07T05:36:40;4.40;;;2.10;;
18455;SDS011;9357;49.900;8.208;2023-08-07T05:38:12;3.50;;;2.10;;
18455;SDS011;9357;49.900;8.208;2023-08-07T05:39:44;3.77;;;2.30;;
18455;SDS011;9357;49.900;8.208;2023-08-07T05:41:17;4.23;;;2.30;;
18455;SDS011;9357;49.900;8.208;2023-08-07T05:42:49;4.03;;;2.20;;
18455;SDS011;9357;49.900;8.208;2023-08-07T05:44:21;5.17;;;2.00;;
18455;SDS011;9357;49.900;8.208;2023-08-07T05:45:55;3.33;;;2.00;;
18455;SDS011;9357;49.900;8.208;2023-08-07T05:47:27;4.73;;;2.13;;
18455;SDS011;9357;49.900;8.208;2023-08-07T05:48:59;3.37;;;2.00;;
18455;SDS011;9357;49.900;8.208;2023-08-07T05:50:32;5.17;;;1.93;;
18455;SDS011;9357;49.900;8.208;2023-08-07T05:52:04;5.70;;;2.00;;
18455;SDS011;9357;49.900;8.208;2023-08-07T05:53:38;4.33;;;1.90;;
18455;SDS011;9357;49.900;8.208;2023-08-07T05:55:09;6.23;;;1.97;;
18455;SDS011;9357;49.900;8.208;2023-08-07T05:56:42;3.50;;;2.10;;
18455;SDS011;9357;49.900;8.208;2023-08-07T05:58:14;4.83;;;1.97;;
18455;SDS011;9357;49.900;8.208;2023-08-07T05:59:47;5.03;;;2.10;;
18455;SDS011;9357;49.900;8.208;2023-08-07T06:01:20;4.70;;;2.10;;
18455;SDS011;9357;49.900;8.208;2023-08-07T06:02:53;3.50;;;1.90;;
18455;SDS011;9357;49.900;8.208;2023-08-07T06:04:25;4.60;;;2.00;;
18455;SDS011;9357;49.900;8.208;2023-08-07T06:05:58;3.67;;;2.20;;
18455;SDS011;9357;49.900;8.208;2023-08-07T06:07:30;3.63;;;2.00;;
18455;SDS011;9357;49.900;8.208;2023-08-07T06:09:02;5.13;;;2.23;;
18455;SDS011;9357;49.900;8.208;2023-08-07T06:10:35;5.97;;;2.10;;
18455;SDS011;9357;49.900;8.208;2023-08-07T06:12:08;4.97;;;1.90;;
18455;SDS011;9357;49.900;8.208;2023-08-07T06:13:39;4.70;;;1.90;;
18455;SDS011;9357;49.900;8.208;2023-08-07T06:15:12;4.23;;;2.00;;
18455;SDS011;9357;49.900;8.208;2023-08-07T06:16:46;3.93;;;2.00;;
18455;SDS011;9357;49.900;8.208;2023-08-07T06:18:19;6.10;;;2.00;;
18455;SDS011;9357;49.900;8.208;2023-08-07T06:19:51;4.73;;;1.77;;
18455;SDS011;9357;49.900;8.208;2023-08-07T06:21:24;4.07;;;2.00;;
18455;SDS011;9357;49.900;8.208;2023-08-07T06:22:59;3.03;;;1.73;;
18455;SDS011;9357;49.900;8.208;2023-08-07T06:24:31;3.00;;;1.87;;
18455;SDS011;9357;49.900;8.208;2023-08-07T06:26:04;3.03;;;1.90;;
18455;SDS011;9357;49.900;8.208;2023-08-07T06:27:39;4.03;;;2.13;;
18455;SDS011;9357;49.900;8.208;2023-08-07T06:29:10;4.10;;;2.00;;
18455;SDS011;9357;49.900;8.208;2023-08-07T06:30:43;2.10;;;1.87;;
18455;SDS011;9357;49.900;8.208;2023-08-07T06:32:17;3.40;;;2.10;;
18455;SDS011;9357;49.900;8.208;2023-08-07T06:33:50;4.87;;;1.87;;
18455;SDS011;9357;49.900;8.208;2023-08-07T06:35:22;7.10;;;2.60;;
18455;SDS011;9357;49.900;8.208;2023-08-07T06:36:54;3.43;;;2.03;;
18455;SDS011;9357;49.900;8.208;2023-08-07T06:38:27;4.60;;;2.00;;
18455;SDS011;9357;49.900;8.208;2023-08-07T06:39:59;3.83;;;1.90;;
18455;SDS011;9357;49.900;8.208;2023-08-07T06:41:32;4.63;;;2.10;;
18455;SDS011;9357;49.900;8.208;2023-08-07T06:43:04;3.37;;;1.80;;
18455;SDS011;9357;49.900;8.208;2023-08-07T06:44:37;4.50;;;2.13;;
18455;SDS011;9357;49.900;8.208;2023-08-07T06:46:09;4.03;;;1.80;;
18455;SDS011;9357;49.900;8.208;2023-08-07T06:47:44;4.20;;;2.00;;
18455;SDS011;9357;49.900;8.208;2023-08-07T06:49:17;4.03;;;1.80;;
18455;SDS011;9357;49.900;8.208;2023-08-07T06:50:49;3.90;;;2.20;;
18455;SDS011;9357;49.900;8.208;2023-08-07T06:52:22;3.07;;;2.00;;
18455;SDS011;9357;49.900;8.208;2023-08-07T06:53:54;4.50;;;1.90;;
18455;SDS011;9357;49.900;8.208;2023-08-07T06:55:27;3.10;;;2.00;;
18455;SDS011;9357;49.900;8.208;2023-08-07T06:56:58;4.23;;;1.90;;
18455;SDS011;9357;49.900;8.208;2023-08-07T06:58:31;5.27;;;2.00;;
18455;SDS011;9357;49.900;8.208;2023-08-07T07:00:03;3.43;;;1.90;;
18455;SDS011;9357;49.900;8.208;2023-08-07T07:01:37;4.87;;;2.40;;
18455;SDS011;9357;49.900;8.208;2023-08-07T07:03:10;3.70;;;2.00;;
18455;SDS011;9357;49.900;8.208;2023-08-07T07:04:43;4.20;;;2.00;;
18455;SDS011;9357;49.900;8.208;2023-08-07T07:06:16;2.20;;;1.93;;
18455;SDS011;9357;49.900;8.208;2023-08-07T07:07:48;1.90;;;1.80;;
18455;SDS011;9357;49.900;8.208;2023-08-07T07:09:20;2.70;;;1.90;;
18455;SDS011;9357;49.900;8.208;2023-08-07T07:10:52;3.10;;;1.87;;
18455;SDS011;9357;49.900;8.208;2023-08-07T07:12:25;4.67;;;1.80;;
18455;SDS011;9357;49.900;8.208;2023-08-07T07:13:57;3.53;;;1.93;;
18455;SDS011;9357;49.900;8.208;2023-08-07T07:15:30;4.40;;;1.90;;
18455;SDS011;9357;49.900;8.208;2023-08-07T07:17:02;3.37;;;1.90;;
18455;SDS011;9357;49.900;8.208;2023-08-07T07:18:36;5.60;;;1.87;;
18455;SDS011;9357;49.900;8.208;2023-08-07T07:20:08;3.47;;;2.20;;
18455;SDS011;9357;49.900;8.208;2023-08-07T07:21:41;3.90;;;2.00;;
18455;SDS011;9357;49.900;8.208;2023-08-07T07:23:13;2.37;;;2.00;;
18455;SDS011;9357;49.900;8.208;2023-08-07T07:24:45;4.73;;;2.10;;
18455;SDS011;9357;49.900;8.208;2023-08-07T07:26:17;2.83;;;1.90;;
18455;SDS011;9357;49.900;8.208;2023-08-07T07:27:50;2.57;;;1.97;;
18455;SDS011;9357;49.900;8.208;2023-08-07T07:29:23;4.17;;;1.83;;
18455;SDS011;9357;49.900;8.208;2023-08-07T07:30:54;3.37;;;2.20;;
18455;SDS011;9357;49.900;8.208;2023-08-07T07:32:27;4.43;;;1.90;;
18455;SDS011;9357;49.900;8.208;2023-08-07T07:34:01;4.60;;;1.90;;
18455;SDS011;9357;49.900;8.208;2023-08-07T07:35:37;4.23;;;2.10;;
18455;SDS011;9357;49.900;8.208;2023-08-07T07:37:09;4.63;;;2.03;;
18455;SDS011;9357;49.900;8.208;2023-08-07T07:38:42;4.77;;;2.17;;
18455;SDS011;9357;49.900;8.208;2023-08-07T07:40:16;3.93;;;2.10;;
18455;SDS011;9357;49.900;8.208;2023-08-07T07:41:49;5.20;;;1.90;;
18455;SDS011;9357;49.900;8.208;2023-08-07T07:43:22;4.07;;;1.90;;
18455;SDS011;9357;49.900;8.208;2023-08-07T07:44:54;2.43;;;2.03;;
18455;SDS011;9357;49.900;8.208;2023-08-07T07:46:27;3.33;;;1.90;;
18455;SDS011;9357;49.900;8.208;2023-08-07T07:47:59;3.50;;;2.03;;
18455;SDS011;9357;49.900;8.208;2023-08-07T07:49:33;3.50;;;1.90;;
18455;SDS011;9357;49.900;8.208;2023-08-07T07:51:06;4.33;;;2.27;;
18455;SDS011;9357;49.900;8.208;2023-08-07T07:52:38;5.47;;;2.20;;
18455;SDS011;9357;49.900;8.208;2023-08-07T07:54:10;3.53;;;1.90;;
18455;SDS011;9357;49.900;8.208;2023-08-07T07:55:46;6.03;;;2.20;;
18455;SDS011;9357;49.900;8.208;2023-08-07T07:57:19;5.93;;;2.33;;
18455;SDS011;9357;49.900;8.208;2023-08-07T07:58:52;3.30;;;2.00;;
18455;SDS011;9357;49.900;8.208;2023-08-07T08:00:24;3.20;;;1.93;;
18455;SDS011;9357;49.900;8.208;2023-08-07T08:01:58;6.43;;;2.40;;
18455;SDS011;9357;49.900;8.208;2023-08-07T08:03:30;5.20;;;2.20;;
18455;SDS011;9357;49.900;8.208;2023-08-07T08:05:04;3.50;;;2.00;;
18455;SDS011;9357;49.900;8.208;2023-08-07T08:06:37;6.87;;;2.40;;
18455;SDS011;9357;49.900;8.208;2023-08-07T08:08:10;4.80;;;2.27;;
18455;SDS011;9357;49.900;8.208;2023-08-07T08:09:43;5.10;;;2.37;;
18455;SDS011;9357;49.900;8.208;2023-08-07T08:11:15;4.23;;;2.00;;
18455;SDS011;9357;49.900;8.208;2023-08-07T08:12:48;3.47;;;1.93;;
18455;SDS011;9357;49.900;8.208;2023-08-07T08:14:20;5.23;;;2.20;;
18455;SDS011;9357;49.900;8.208;2023-08-07T08:15:53;5.03;;;2.20;;
18455;SDS011;9357;49.900;8.208;2023-08-07T08:17:25;5.10;;;2.00;;
18455;SDS011;9357;49.900;8.208;2023-08-07T08:18:58;3.87;;;2.00;;
18455;SDS011;9357;49.900;8.208;2023-08-07T08:20:32;3.50;;;2.30;;
18455;SDS011;9357;49.900;8.208;2023-08-07T08:22:04;5.20;;;2.13;;
18455;SDS011;9357;49.900;8.208;2023-08-07T08:23:37;5.40;;;2.20;;
18455;SDS011;9357;49.900;8.208;2023-08-07T08:25:10;5.13;;;2.13;;
18455;SDS011;9357;49.900;8.208;2023-08-07T08:26:42;8.77;;;2.53;;
18455;SDS011;9357;49.900;8.208;2023-08-07T08:28:15;4.17;;;2.13;;
18455;SDS011;9357;49.900;8.208;2023-08-07T08:29:48;3.97;;;2.00;;
18455;SDS011;9357;49.900;8.208;2023-08-07T08:31:20;2.33;;;1.90;;
18455;SDS011;9357;49.900;8.208;2023-08-07T08:32:55;2.90;;;2.20;;
18455;SDS011;9357;49.900;8.208;2023-08-07T08:34:27;3.50;;;1.93;;
18455;SDS011;9357;49.900;8.208;2023-08-07T08:36:01;5.20;;;1.93;;
18455;SDS011;9357;49.900;8.208;2023-08-07T08:37:34;4.13;;;1.90;;
18455;SDS011;9357;49.900;8.208;2023-08-07T08:39:07;6.80;;;2.30;;
18455;SDS011;9357;49.900;8.208;2023-08-07T08:40:39;4.63;;;2.20;;
18455;SDS011;9357;49.900;8.208;2023-08-07T08:42:12;3.67;;;2.13;;
18455;SDS011;9357;49.900;8.208;2023-08-07T08:43:45;4.33;;;1.90;;
18455;SDS011;9357;49.900;8.208;2023-08-07T08:45:19;4.77;;;2.00;;
18455;SDS011;9357;49.900;8.208;2023-08-07T08:46:53;6.57;;;2.30;;
18455;SDS011;9357;49.900;8.208;2023-08-07T08:48:30;4.93;;;2.07;;
18455;SDS011;9357;49.900;8.208;2023-08-07T08:50:07;4.70;;;1.90;;
18455;SDS011;9357;49.900;8.208;2023-08-07T08:51:41;5.90;;;2.10;;
18455;SDS011;9357;49.900;8.208;2023-08-07T08:53:15;4.80;;;2.10;;
18455;SDS011;9357;49.900;8.208;2023-08-07T08:54:48;5.33;;;2.33;;
18455;SDS011;9357;49.900;8.208;2023-08-07T08:56:22;4.70;;;2.10;;
18455;SDS011;9357;49.900;8.208;2023-08-07T08:57:54;4.17;;;1.83;;
18455;SDS011;9357;49.900;8.208;2023-08-07T08:59:27;5.00;;;2.10;;
18455;SDS011;9357;49.900;8.208;2023-08-07T09:00:59;4.67;;;2.10;;
18455;SDS011;9357;49.900;8.208;2023-08-07T09:02:33;6.00;;;2.17;;
18455;SDS011;9357;49.900;8.208;2023-08-07T09:04:06;3.80;;;1.97;;
18455;SDS011;9357;49.900;8.208;2023-08-07T09:05:41;3.60;;;2.10;;
18455;SDS011;9357;49.900;8.208;2023-08-07T09:07:15;6.33;;;1.90;;
18455;SDS011;9357;49.900;8.208;2023-08-07T09:08:48;2.80;;;1.90;;
18455;SDS011;9357;49.900;8.208;2023-08-07T09:10:22;3.43;;;1.70;;
18455;SDS011;9357;49.900;8.208;2023-08-07T09:11:54;3.27;;;2.07;;
18455;SDS011;9357;49.900;8.208;2023-08-07T09:13:29;3.97;;;1.60;;
18455;SDS011;9357;49.900;8.208;2023-08-07T09:15:04;5.23;;;2.13;;
18455;SDS011;9357;49.900;8.208;2023-08-07T09:16:38;5.80;;;2.00;;
18455;SDS011;9357;49.900;8.208;2023-08-07T09:18:11;5.30;;;2.07;;
18455;SDS011;9357;49.900;8.208;2023-08-07T09:19:44;3.57;;;2.27;;
18455;SDS011;9357;49.900;8.208;2023-08-07T09:21:16;5.77;;;2.30;;
18455;SDS011;9357;49.900;8.208;2023-08-07T09:22:51;6.40;;;2.50;;
18455;SDS011;9357;49.900;8.208;2023-08-07T09:24:23;4.70;;;2.20;;
18455;SDS011;9357;49.900;8.208;2023-08-07T09:25:59;3.03;;;2.20;;
18455;SDS011;9357;49.900;8.208;2023-08-07T09:27:31;5.73;;;2.00;;
18455;SDS011;9357;49.900;8.208;2023-08-07T09:29:04;5.83;;;2.40;;